sensor_id;sensor_type;location;lat;lon;timestamp;P1;durP1;ratioP1;P2;durP2;ratioP2
19505;SDS011;9894;50.852;-0.140;2023-04-15T00:00:06;1.23;;;1.13;;
19505;SDS011;9894;50.852;-0.140;2023-04-15T00:02:34;0.80;;;0.80;;
19505;SDS011;9894;50.852;-0.140;2023-04-15T00:05:01;1.08;;;1.08;;
19505;SDS011;9894;50.852;-0.140;2023-04-15T00:07:27;2.28;;;0.98;;
19505;SDS011;9894;50.852;-0.140;2023-04-15T00:09:54;1.08;;;1.08;;
19505;SDS011;9894;50.852;-0.140;2023-04-15T00:12:22;0.70;;;0.70;;
19505;SDS011;9894;50.852;-0.140;2023-04-15T00:14:48;1.40;;;1.30;;
19505;SDS011;9894;50.852;-0.140;2023-04-15T00:17:15;0.77;;;0.77;;
19505;SDS011;9894;50.852;-0.140;2023-04-15T00:19:41;0.70;;;0.70;;
19505;SDS011;9894;50.852;-0.140;2023-04-15T00:22:11;2.08;;;1.88;;
19505;SDS011;9894;50.852;-0.140;2023-04-15T00:24:38;0.70;;;0.70;;
19505;SDS011;9894;50.852;-0.140;2023-04-15T00:27:04;0.98;;;0.98;;
19505;SDS011;9894;50.852;-0.140;2023-04-15T00:29:30;0.73;;;0.73;;
19505;SDS011;9894;50.852;-0.140;2023-04-15T00:31:56;0.60;;;0.60;;
19505;SDS011;9894;50.852;-0.140;2023-04-15T00:34:22;0.60;;;0.60;;
19505;SDS011;9894;50.852;-0.140;2023-04-15T00:36:51;1.02;;;1.02;;
19505;SDS011;9894;50.852;-0.140;2023-04-15T00:39:18;0.77;;;0.77;;
19505;SDS011;9894;50.852;-0.140;2023-04-15T00:41:44;0.70;;;0.70;;
19505;SDS011;9894;50.852;-0.140;2023-04-15T00:44:10;0.70;;;0.70;;
19505;SDS011;9894;50.852;-0.140;2023-04-15T00:46:37;1.00;;;1.00;;
19505;SDS011;9894;50.852;-0.140;2023-04-15T00:49:04;1.30;;;1.00;;
19505;SDS011;9894;50.852;-0.140;2023-04-15T00:51:32;0.70;;;0.70;;
19505;SDS011;9894;50.852;-0.140;2023-04-15T00:54:00;1.17;;;1.17;;
19505;SDS011;9894;50.852;-0.140;2023-04-15T00:56:27;0.93;;;0.93;;
19505;SDS011;9894;50.852;-0.140;2023-04-15T00:58:53;0.98;;;0.98;;
19505;SDS011;9894;50.852;-0.140;2023-04-15T01:01:20;0.80;;;0.80;;
19505;SDS011;9894;50.852;-0.140;2023-04-15T01:03:47;0.80;;;0.80;;
19505;SDS011;9894;50.852;-0.140;2023-04-15T01:06:14;0.70;;;0.70;;
19505;SDS011;9894;50.852;-0.140;2023-04-15T01:08:40;1.40;;;1.02;;
19505;SDS011;9894;50.852;-0.140;2023-04-15T01:11:07;1.13;;;1.08;;
19505;SDS011;9894;50.852;-0.140;2023-04-15T01:13:33;0.80;;;0.80;;
19505;SDS011;9894;50.852;-0.140;2023-04-15T01:15:59;1.75;;;1.35;;
19505;SDS011;9894;50.852;-0.140;2023-04-15T01:18:27;0.73;;;0.73;;
19505;SDS011;9894;50.852;-0.140;2023-04-15T01:20:53;1.17;;;1.13;;
19505;SDS011;9894;50.852;-0.140;2023-04-15T01:23:20;1.38;;;1.13;;
19505;SDS011;9894;50.852;-0.140;2023-04-15T01:25:48;0.95;;;0.95;;
19505;SDS011;9894;50.852;-0.140;2023-04-15T01:28:14;1.40;;;1.33;;
19505;SDS011;9894;50.852;-0.140;2023-04-15T01:30:41;0.80;;;0.80;;
19505;SDS011;9894;50.852;-0.140;2023-04-15T01:33:07;0.85;;;0.85;;
19505;SDS011;9894;50.852;-0.140;2023-04-15T01:35:33;2.97;;;1.33;;
19505;SDS011;9894;50.852;-0.140;2023-04-15T01:38:07;1.85;;;1.25;;
19505;SDS011;9894;50.852;-0.140;2023-04-15T01:40:33;0.70;;;0.70;;
19505;SDS011;9894;50.852;-0.140;2023-04-15T01:43:00;0.60;;;0.60;;
19505;SDS011;9894;50.852;-0.140;2023-04-15T01:45:26;0.60;;;0.60;;
19505;SDS011;9894;50.852;-0.140;2023-04-15T01:47:53;0.70;;;0.70;;
19505;SDS011;9894;50.852;-0.140;2023-04-15T01:50:19;1.88;;;1.30;;
19505;SDS011;9894;50.852;-0.140;2023-04-15T01:52:46;0.80;;;0.80;;
19505;SDS011;9894;50.852;-0.140;2023-04-15T01:55:12;2.83;;;1.95;;
19505;SDS011;9894;50.852;-0.140;2023-04-15T01:57:39;2.85;;;1.65;;
19505;SDS011;9894;50.852;-0.140;2023-04-15T02:00:05;0.63;;;0.63;;
19505;SDS011;9894;50.852;-0.140;2023-04-15T02:02:35;0.82;;;0.82;;
19505;SDS011;9894;50.852;-0.140;2023-04-15T02:05:01;0.70;;;0.70;;
19505;SDS011;9894;50.852;-0.140;2023-04-15T02:07:29;0.60;;;0.60;;
19505;SDS011;9894;50.852;-0.140;2023-04-15T02:09:56;0.98;;;0.98;;
19505;SDS011;9894;50.852;-0.140;2023-04-15T02:12:22;0.70;;;0.70;;
19505;SDS011;9894;50.852;-0.140;2023-04-15T02:14:48;0.70;;;0.70;;
19505;SDS011;9894;50.852;-0.140;2023-04-15T02:17:14;1.55;;;0.95;;
19505;SDS011;9894;50.852;-0.140;2023-04-15T02:19:41;0.70;;;0.70;;
19505;SDS011;9894;50.852;-0.140;2023-04-15T02:22:07;0.70;;;0.70;;
19505;SDS011;9894;50.852;-0.140;2023-04-15T02:24:35;0.50;;;0.50;;
19505;SDS011;9894;50.852;-0.140;2023-04-15T02:27:01;1.23;;;1.23;;
19505;SDS011;9894;50.852;-0.140;2023-04-15T02:29:27;0.50;;;0.50;;
19505;SDS011;9894;50.852;-0.140;2023-04-15T02:31:53;0.60;;;0.60;;
19505;SDS011;9894;50.852;-0.140;2023-04-15T02:34:20;0.52;;;0.52;;
19505;SDS011;9894;50.852;-0.140;2023-04-15T02:36:47;0.57;;;0.57;;
19505;SDS011;9894;50.852;-0.140;2023-04-15T02:39:13;0.70;;;0.70;;
19505;SDS011;9894;50.852;-0.140;2023-04-15T02:41:41;1.27;;;1.17;;
19505;SDS011;9894;50.852;-0.140;2023-04-15T02:44:08;0.60;;;0.60;;
19505;SDS011;9894;50.852;-0.140;2023-04-15T02:46:34;1.00;;;0.98;;
19505;SDS011;9894;50.852;-0.140;2023-04-15T02:49:00;1.17;;;1.17;;
19505;SDS011;9894;50.852;-0.140;2023-04-15T02:51:29;0.70;;;0.70;;
19505;SDS011;9894;50.852;-0.140;2023-04-15T02:53:56;0.60;;;0.60;;
19505;SDS011;9894;50.852;-0.140;2023-04-15T02:56:22;0.82;;;0.82;;
19505;SDS011;9894;50.852;-0.140;2023-04-15T02:58:48;0.60;;;0.60;;
19505;SDS011;9894;50.852;-0.140;2023-04-15T03:01:15;1.67;;;1.58;;
19505;SDS011;9894;50.852;-0.140;2023-04-15T03:03:41;1.75;;;1.17;;
19505;SDS011;9894;50.852;-0.140;2023-04-15T03:06:07;0.60;;;0.60;;
19505;SDS011;9894;50.852;-0.140;2023-04-15T03:08:33;1.23;;;1.13;;
19505;SDS011;9894;50.852;-0.140;2023-04-15T03:11:00;2.95;;;1.35;;
19505;SDS011;9894;50.852;-0.140;2023-04-15T03:13:26;0.73;;;0.73;;
19505;SDS011;9894;50.852;-0.140;2023-04-15T03:15:53;2.80;;;1.40;;
19505;SDS011;9894;50.852;-0.140;2023-04-15T03:18:19;0.60;;;0.60;;
19505;SDS011;9894;50.852;-0.140;2023-04-15T03:20:45;1.75;;;1.42;;
19505;SDS011;9894;50.852;-0.140;2023-04-15T03:23:11;0.80;;;0.80;;
19505;SDS011;9894;50.852;-0.140;2023-04-15T03:25:37;0.85;;;0.85;;
19505;SDS011;9894;50.852;-0.140;2023-04-15T03:28:04;0.60;;;0.60;;
19505;SDS011;9894;50.852;-0.140;2023-04-15T03:30:30;0.57;;;0.57;;
19505;SDS011;9894;50.852;-0.140;2023-04-15T03:32:56;0.60;;;0.60;;
19505;SDS011;9894;50.852;-0.140;2023-04-15T03:35:22;0.47;;;0.47;;
19505;SDS011;9894;50.852;-0.140;2023-04-15T03:37:48;3.10;;;1.38;;
19505;SDS011;9894;50.852;-0.140;2023-04-15T03:40:20;0.60;;;0.60;;
19505;SDS011;9894;50.852;-0.140;2023-04-15T03:42:46;1.17;;;1.08;;
19505;SDS011;9894;50.852;-0.140;2023-04-15T03:45:12;0.57;;;0.57;;
19505;SDS011;9894;50.852;-0.140;2023-04-15T03:47:38;0.47;;;0.47;;
19505;SDS011;9894;50.852;-0.140;2023-04-15T03:50:05;0.63;;;0.63;;
19505;SDS011;9894;50.852;-0.140;2023-04-15T03:52:31;0.80;;;0.80;;
19505;SDS011;9894;50.852;-0.140;2023-04-15T03:54:57;0.45;;;0.45;;
19505;SDS011;9894;50.852;-0.140;2023-04-15T03:57:23;2.22;;;1.73;;
19505;SDS011;9894;50.852;-0.140;2023-04-15T03:59:49;0.65;;;0.65;;
19505;SDS011;9894;50.852;-0.140;2023-04-15T04:02:15;0.95;;;0.90;;
19505;SDS011;9894;50.852;-0.140;2023-04-15T04:04:41;0.45;;;0.45;;
19505;SDS011;9894;50.852;-0.140;2023-04-15T04:07:08;0.40;;;0.40;;
19505;SDS011;9894;50.852;-0.140;2023-04-15T04:09:34;0.40;;;0.40;;
19505;SDS011;9894;50.852;-0.140;2023-04-15T04:12:00;0.73;;;0.73;;
19505;SDS011;9894;50.852;-0.140;2023-04-15T04:14:26;0.45;;;0.45;;
19505;SDS011;9894;50.852;-0.140;2023-04-15T04:16:54;0.95;;;0.95;;
19505;SDS011;9894;50.852;-0.140;2023-04-15T04:19:21;0.50;;;0.50;;
19505;SDS011;9894;50.852;-0.140;2023-04-15T04:21:47;0.40;;;0.40;;
19505;SDS011;9894;50.852;-0.140;2023-04-15T04:24:13;0.40;;;0.40;;
19505;SDS011;9894;50.852;-0.140;2023-04-15T04:26:39;0.40;;;0.40;;
19505;SDS011;9894;50.852;-0.140;2023-04-15T04:29:05;0.40;;;0.40;;
19505;SDS011;9894;50.852;-0.140;2023-04-15T04:31:32;0.60;;;0.60;;
19505;SDS011;9894;50.852;-0.140;2023-04-15T04:33:58;0.47;;;0.47;;
19505;SDS011;9894;50.852;-0.140;2023-04-15T04:36:24;1.65;;;0.70;;
19505;SDS011;9894;50.852;-0.140;2023-04-15T04:38:50;0.50;;;0.50;;
19505;SDS011;9894;50.852;-0.140;2023-04-15T04:41:17;0.57;;;0.57;;
19505;SDS011;9894;50.852;-0.140;2023-04-15T04:43:43;0.30;;;0.30;;
19505;SDS011;9894;50.852;-0.140;2023-04-15T04:46:09;0.93;;;0.88;;
19505;SDS011;9894;50.852;-0.140;2023-04-15T04:48:36;0.35;;;0.30;;
19505;SDS011;9894;50.852;-0.140;2023-04-15T04:51:02;0.50;;;0.50;;
19505;SDS011;9894;50.852;-0.140;2023-04-15T04:53:28;0.30;;;0.30;;
19505;SDS011;9894;50.852;-0.140;2023-04-15T04:55:54;0.60;;;0.60;;
19505;SDS011;9894;50.852;-0.140;2023-04-15T04:58:20;0.57;;;0.57;;
19505;SDS011;9894;50.852;-0.140;2023-04-15T05:00:46;0.30;;;0.30;;
19505;SDS011;9894;50.852;-0.140;2023-04-15T05:03:12;0.30;;;0.30;;
19505;SDS011;9894;50.852;-0.140;2023-04-15T05:05:39;0.50;;;0.50;;
19505;SDS011;9894;50.852;-0.140;2023-04-15T05:08:05;0.57;;;0.57;;
19505;SDS011;9894;50.852;-0.140;2023-04-15T05:10:32;0.40;;;0.40;;
19505;SDS011;9894;50.852;-0.140;2023-04-15T05:12:58;0.30;;;0.30;;
19505;SDS011;9894;50.852;-0.140;2023-04-15T05:15:24;0.35;;;0.35;;
19505;SDS011;9894;50.852;-0.140;2023-04-15T05:17:50;0.30;;;0.30;;
19505;SDS011;9894;50.852;-0.140;2023-04-15T05:20:16;1.65;;;0.57;;
19505;SDS011;9894;50.852;-0.140;2023-04-15T05:22:42;0.20;;;0.20;;
19505;SDS011;9894;50.852;-0.140;2023-04-15T05:25:08;0.47;;;0.47;;
19505;SDS011;9894;50.852;-0.140;2023-04-15T05:27:35;0.40;;;0.40;;
19505;SDS011;9894;50.852;-0.140;2023-04-15T05:30:01;0.50;;;0.50;;
19505;SDS011;9894;50.852;-0.140;2023-04-15T05:32:27;0.30;;;0.30;;
19505;SDS011;9894;50.852;-0.140;2023-04-15T05:34:53;0.20;;;0.20;;
19505;SDS011;9894;50.852;-0.140;2023-04-15T05:37:19;0.50;;;0.50;;
19505;SDS011;9894;50.852;-0.140;2023-04-15T05:39:46;0.65;;;0.52;;
19505;SDS011;9894;50.852;-0.140;2023-04-15T05:42:13;0.35;;;0.35;;
19505;SDS011;9894;50.852;-0.140;2023-04-15T05:44:39;0.80;;;0.75;;
19505;SDS011;9894;50.852;-0.140;2023-04-15T05:47:05;0.30;;;0.30;;
19505;SDS011;9894;50.852;-0.140;2023-04-15T05:49:32;0.63;;;0.63;;
19505;SDS011;9894;50.852;-0.140;2023-04-15T05:51:58;0.32;;;0.32;;
19505;SDS011;9894;50.852;-0.140;2023-04-15T05:54:24;0.30;;;0.30;;
19505;SDS011;9894;50.852;-0.140;2023-04-15T05:56:52;0.32;;;0.32;;
19505;SDS011;9894;50.852;-0.140;2023-04-15T05:59:18;0.30;;;0.30;;
19505;SDS011;9894;50.852;-0.140;2023-04-15T06:01:44;0.52;;;0.52;;
19505;SDS011;9894;50.852;-0.140;2023-04-15T06:04:11;0.60;;;0.60;;
19505;SDS011;9894;50.852;-0.140;2023-04-15T06:06:37;0.50;;;0.50;;
19505;SDS011;9894;50.852;-0.140;2023-04-15T06:09:03;0.40;;;0.40;;
19505;SDS011;9894;50.852;-0.140;2023-04-15T06:11:29;2.40;;;2.30;;
19505;SDS011;9894;50.852;-0.140;2023-04-15T06:13:55;3.88;;;3.67;;
19505;SDS011;9894;50.852;-0.140;2023-04-15T06:16:21;0.52;;;0.52;;
19505;SDS011;9894;50.852;-0.140;2023-04-15T06:18:47;0.40;;;0.40;;
19505;SDS011;9894;50.852;-0.140;2023-04-15T06:21:14;1.08;;;0.47;;
19505;SDS011;9894;50.852;-0.140;2023-04-15T06:23:40;0.50;;;0.50;;
19505;SDS011;9894;50.852;-0.140;2023-04-15T06:26:06;0.80;;;0.80;;
19505;SDS011;9894;50.852;-0.140;2023-04-15T06:28:33;0.40;;;0.40;;
19505;SDS011;9894;50.852;-0.140;2023-04-15T06:30:59;0.40;;;0.40;;
19505;SDS011;9894;50.852;-0.140;2023-04-15T06:33:26;0.40;;;0.40;;
19505;SDS011;9894;50.852;-0.140;2023-04-15T06:35:52;0.45;;;0.45;;
19505;SDS011;9894;50.852;-0.140;2023-04-15T06:38:18;1.85;;;0.88;;
19505;SDS011;9894;50.852;-0.140;2023-04-15T06:40:44;0.73;;;0.73;;
19505;SDS011;9894;50.852;-0.140;2023-04-15T06:43:10;0.32;;;0.32;;
19505;SDS011;9894;50.852;-0.140;2023-04-15T06:45:37;0.93;;;0.50;;
19505;SDS011;9894;50.852;-0.140;2023-04-15T06:48:03;0.40;;;0.40;;
19505;SDS011;9894;50.852;-0.140;2023-04-15T06:50:29;1.70;;;1.20;;
19505;SDS011;9894;50.852;-0.140;2023-04-15T06:52:56;0.40;;;0.40;;
19505;SDS011;9894;50.852;-0.140;2023-04-15T06:55:22;0.55;;;0.55;;
19505;SDS011;9894;50.852;-0.140;2023-04-15T06:57:48;0.30;;;0.30;;
19505;SDS011;9894;50.852;-0.140;2023-04-15T07:00:15;0.30;;;0.30;;
19505;SDS011;9894;50.852;-0.140;2023-04-15T07:02:41;0.90;;;0.90;;
19505;SDS011;9894;50.852;-0.140;2023-04-15T07:05:07;0.68;;;0.68;;
19505;SDS011;9894;50.852;-0.140;2023-04-15T07:07:34;0.43;;;0.43;;
19505;SDS011;9894;50.852;-0.140;2023-04-15T07:10:00;1.30;;;1.13;;
19505;SDS011;9894;50.852;-0.140;2023-04-15T07:12:26;0.40;;;0.40;;
19505;SDS011;9894;50.852;-0.140;2023-04-15T07:14:53;0.47;;;0.47;;
19505;SDS011;9894;50.852;-0.140;2023-04-15T07:17:20;0.30;;;0.30;;
19505;SDS011;9894;50.852;-0.140;2023-04-15T07:19:46;1.55;;;0.68;;
19505;SDS011;9894;50.852;-0.140;2023-04-15T07:22:12;0.40;;;0.40;;
19505;SDS011;9894;50.852;-0.140;2023-04-15T07:24:38;0.57;;;0.57;;
19505;SDS011;9894;50.852;-0.140;2023-04-15T07:27:04;0.75;;;0.75;;
19505;SDS011;9894;50.852;-0.140;2023-04-15T07:29:31;0.40;;;0.40;;
19505;SDS011;9894;50.852;-0.140;2023-04-15T07:31:57;0.20;;;0.20;;
19505;SDS011;9894;50.852;-0.140;2023-04-15T07:34:23;0.20;;;0.20;;
19505;SDS011;9894;50.852;-0.140;2023-04-15T07:36:49;0.75;;;0.75;;
19505;SDS011;9894;50.852;-0.140;2023-04-15T07:39:16;0.45;;;0.45;;
19505;SDS011;9894;50.852;-0.140;2023-04-15T07:41:43;0.52;;;0.52;;
19505;SDS011;9894;50.852;-0.140;2023-04-15T07:44:09;0.30;;;0.30;;
19505;SDS011;9894;50.852;-0.140;2023-04-15T07:46:36;0.30;;;0.30;;
19505;SDS011;9894;50.852;-0.140;2023-04-15T07:49:03;0.60;;;0.60;;
19505;SDS011;9894;50.852;-0.140;2023-04-15T07:51:29;0.65;;;0.65;;
19505;SDS011;9894;50.852;-0.140;2023-04-15T07:53:56;0.32;;;0.32;;
19505;SDS011;9894;50.852;-0.140;2023-04-15T07:56:22;0.40;;;0.40;;
19505;SDS011;9894;50.852;-0.140;2023-04-15T07:58:48;0.60;;;0.60;;
19505;SDS011;9894;50.852;-0.140;2023-04-15T08:01:15;0.45;;;0.45;;
19505;SDS011;9894;50.852;-0.140;2023-04-15T08:03:41;0.43;;;0.43;;
19505;SDS011;9894;50.852;-0.140;2023-04-15T08:06:07;0.43;;;0.43;;
19505;SDS011;9894;50.852;-0.140;2023-04-15T08:08:33;0.30;;;0.30;;
19505;SDS011;9894;50.852;-0.140;2023-04-15T08:10:59;0.28;;;0.28;;
19505;SDS011;9894;50.852;-0.140;2023-04-15T08:13:25;0.80;;;0.80;;
19505;SDS011;9894;50.852;-0.140;2023-04-15T08:18:36;0.50;;;0.47;;
19505;SDS011;9894;50.852;-0.140;2023-04-15T08:21:03;0.70;;;0.70;;
19505;SDS011;9894;50.852;-0.140;2023-04-15T08:23:30;0.85;;;0.85;;
19505;SDS011;9894;50.852;-0.140;2023-04-15T08:25:57;0.40;;;0.40;;
19505;SDS011;9894;50.852;-0.140;2023-04-15T08:28:23;0.52;;;0.50;;
19505;SDS011;9894;50.852;-0.140;2023-04-15T08:30:51;0.28;;;0.28;;
19505;SDS011;9894;50.852;-0.140;2023-04-15T08:33:17;0.50;;;0.50;;
19505;SDS011;9894;50.852;-0.140;2023-04-15T08:35:43;0.50;;;0.50;;
19505;SDS011;9894;50.852;-0.140;2023-04-15T08:38:09;0.40;;;0.40;;
19505;SDS011;9894;50.852;-0.140;2023-04-15T08:40:43;0.50;;;0.50;;
19505;SDS011;9894;50.852;-0.140;2023-04-15T08:43:22;0.43;;;0.43;;
19505;SDS011;9894;50.852;-0.140;2023-04-15T08:45:51;0.30;;;0.30;;
19505;SDS011;9894;50.852;-0.140;2023-04-15T08:48:17;0.35;;;0.35;;
19505;SDS011;9894;50.852;-0.140;2023-04-15T08:50:44;3.10;;;1.65;;
19505;SDS011;9894;50.852;-0.140;2023-04-15T08:53:11;0.40;;;0.40;;
19505;SDS011;9894;50.852;-0.140;2023-04-15T08:55:48;0.40;;;0.40;;
19505;SDS011;9894;50.852;-0.140;2023-04-15T08:58:16;0.30;;;0.30;;
19505;SDS011;9894;50.852;-0.140;2023-04-15T09:00:42;0.43;;;0.43;;
19505;SDS011;9894;50.852;-0.140;2023-04-15T09:03:09;0.20;;;0.20;;
19505;SDS011;9894;50.852;-0.140;2023-04-15T09:05:35;0.47;;;0.47;;
19505;SDS011;9894;50.852;-0.140;2023-04-15T09:08:02;0.47;;;0.47;;
19505;SDS011;9894;50.852;-0.140;2023-04-15T09:10:28;0.70;;;0.65;;
19505;SDS011;9894;50.852;-0.140;2023-04-15T09:12:55;0.40;;;0.40;;
19505;SDS011;9894;50.852;-0.140;2023-04-15T09:15:23;0.50;;;0.50;;
19505;SDS011;9894;50.852;-0.140;2023-04-15T09:17:59;0.38;;;0.38;;
19505;SDS011;9894;50.852;-0.140;2023-04-15T09:20:25;0.73;;;0.73;;
19505;SDS011;9894;50.852;-0.140;2023-04-15T09:22:51;1.60;;;1.23;;
19505;SDS011;9894;50.852;-0.140;2023-04-15T09:27:50;0.30;;;0.30;;
19505;SDS011;9894;50.852;-0.140;2023-04-15T09:30:16;0.40;;;0.40;;
19505;SDS011;9894;50.852;-0.140;2023-04-15T09:35:15;0.20;;;0.20;;
19505;SDS011;9894;50.852;-0.140;2023-04-15T09:37:41;0.70;;;0.70;;
19505;SDS011;9894;50.852;-0.140;2023-04-15T09:40:07;0.40;;;0.40;;
19505;SDS011;9894;50.852;-0.140;2023-04-15T09:42:34;0.20;;;0.20;;
19505;SDS011;9894;50.852;-0.140;2023-04-15T09:45:08;0.22;;;0.22;;
19505;SDS011;9894;50.852;-0.140;2023-04-15T09:47:34;0.82;;;0.82;;
19505;SDS011;9894;50.852;-0.140;2023-04-15T09:50:01;0.22;;;0.22;;
19505;SDS011;9894;50.852;-0.140;2023-04-15T09:52:27;0.30;;;0.30;;
19505;SDS011;9894;50.852;-0.140;2023-04-15T09:54:54;0.40;;;0.40;;
19505;SDS011;9894;50.852;-0.140;2023-04-15T09:57:20;0.32;;;0.32;;
19505;SDS011;9894;50.852;-0.140;2023-04-15T09:59:48;0.52;;;0.52;;
19505;SDS011;9894;50.852;-0.140;2023-04-15T10:02:14;1.35;;;1.25;;
19505;SDS011;9894;50.852;-0.140;2023-04-15T10:04:40;4.28;;;0.90;;
19505;SDS011;9894;50.852;-0.140;2023-04-15T10:07:11;0.55;;;0.55;;
19505;SDS011;9894;50.852;-0.140;2023-04-15T10:09:37;0.50;;;0.50;;
19505;SDS011;9894;50.852;-0.140;2023-04-15T10:12:03;1.65;;;0.65;;
19505;SDS011;9894;50.852;-0.140;2023-04-15T10:14:31;1.75;;;1.40;;
19505;SDS011;9894;50.852;-0.140;2023-04-15T10:16:57;0.45;;;0.45;;
19505;SDS011;9894;50.852;-0.140;2023-04-15T10:19:25;0.30;;;0.30;;
19505;SDS011;9894;50.852;-0.140;2023-04-15T10:21:52;0.40;;;0.40;;
19505;SDS011;9894;50.852;-0.140;2023-04-15T10:24:19;1.55;;;0.90;;
19505;SDS011;9894;50.852;-0.140;2023-04-15T10:26:45;0.40;;;0.40;;
19505;SDS011;9894;50.852;-0.140;2023-04-15T10:29:12;0.30;;;0.25;;
19505;SDS011;9894;50.852;-0.140;2023-04-15T10:31:38;0.28;;;0.28;;
19505;SDS011;9894;50.852;-0.140;2023-04-15T10:34:05;0.32;;;0.32;;
19505;SDS011;9894;50.852;-0.140;2023-04-15T10:36:32;0.40;;;0.40;;
19505;SDS011;9894;50.852;-0.140;2023-04-15T10:38:58;0.55;;;0.55;;
19505;SDS011;9894;50.852;-0.140;2023-04-15T10:41:25;0.50;;;0.50;;
19505;SDS011;9894;50.852;-0.140;2023-04-15T10:43:52;0.40;;;0.40;;
19505;SDS011;9894;50.852;-0.140;2023-04-15T10:46:20;0.85;;;0.80;;
19505;SDS011;9894;50.852;-0.140;2023-04-15T10:48:50;0.38;;;0.38;;
19505;SDS011;9894;50.852;-0.140;2023-04-15T10:51:29;1.27;;;0.80;;
19505;SDS011;9894;50.852;-0.140;2023-04-15T10:53:56;0.50;;;0.50;;
19505;SDS011;9894;50.852;-0.140;2023-04-15T10:56:23;0.50;;;0.50;;
19505;SDS011;9894;50.852;-0.140;2023-04-15T10:58:49;1.10;;;1.10;;
19505;SDS011;9894;50.852;-0.140;2023-04-15T11:01:16;1.20;;;1.20;;
19505;SDS011;9894;50.852;-0.140;2023-04-15T11:03:44;2.55;;;1.90;;
19505;SDS011;9894;50.852;-0.140;2023-04-15T11:06:10;1.15;;;1.15;;
19505;SDS011;9894;50.852;-0.140;2023-04-15T11:08:58;1.52;;;1.50;;
19505;SDS011;9894;50.852;-0.140;2023-04-15T11:14:15;2.40;;;2.30;;
19505;SDS011;9894;50.852;-0.140;2023-04-15T11:16:42;2.40;;;2.30;;
19505;SDS011;9894;50.852;-0.140;2023-04-15T11:19:11;3.80;;;3.60;;
19505;SDS011;9894;50.852;-0.140;2023-04-15T11:21:37;4.80;;;4.50;;
19505;SDS011;9894;50.852;-0.140;2023-04-15T11:24:03;5.53;;;5.22;;
19505;SDS011;9894;50.852;-0.140;2023-04-15T11:26:32;6.88;;;6.45;;
19505;SDS011;9894;50.852;-0.140;2023-04-15T11:28:59;6.80;;;6.40;;
19505;SDS011;9894;50.852;-0.140;2023-04-15T11:31:26;7.18;;;6.70;;
19505;SDS011;9894;50.852;-0.140;2023-04-15T11:36:18;8.70;;;8.10;;
19505;SDS011;9894;50.852;-0.140;2023-04-15T11:38:45;9.75;;;9.05;;
19505;SDS011;9894;50.852;-0.140;2023-04-15T11:41:11;10.40;;;9.70;;
19505;SDS011;9894;50.852;-0.140;2023-04-15T11:43:38;10.27;;;9.57;;
19505;SDS011;9894;50.852;-0.140;2023-04-15T11:46:04;10.85;;;10.05;;
19505;SDS011;9894;50.852;-0.140;2023-04-15T11:48:31;10.88;;;10.07;;
19505;SDS011;9894;50.852;-0.140;2023-04-15T11:53:24;10.90;;;10.10;;
19505;SDS011;9894;50.852;-0.140;2023-04-15T11:56:00;11.10;;;10.30;;
19505;SDS011;9894;50.852;-0.140;2023-04-15T11:58:26;12.77;;;11.88;;
19505;SDS011;9894;50.852;-0.140;2023-04-15T12:00:53;11.50;;;10.70;;
19505;SDS011;9894;50.852;-0.140;2023-04-15T12:11:18;13.32;;;12.43;;
19505;SDS011;9894;50.852;-0.140;2023-04-15T12:13:48;13.07;;;12.07;;
19505;SDS011;9894;50.852;-0.140;2023-04-15T12:16:18;13.40;;;12.50;;
19505;SDS011;9894;50.852;-0.140;2023-04-15T12:18:51;12.48;;;11.65;;
19505;SDS011;9894;50.852;-0.140;2023-04-15T12:21:27;11.60;;;10.80;;
19505;SDS011;9894;50.852;-0.140;2023-04-15T12:23:54;11.10;;;10.30;;
19505;SDS011;9894;50.852;-0.140;2023-04-15T12:26:27;11.70;;;10.90;;
19505;SDS011;9894;50.852;-0.140;2023-04-15T12:28:54;10.40;;;9.70;;
19505;SDS011;9894;50.852;-0.140;2023-04-15T12:31:21;10.73;;;10.02;;
19505;SDS011;9894;50.852;-0.140;2023-04-15T12:33:48;11.40;;;10.60;;
19505;SDS011;9894;50.852;-0.140;2023-04-15T12:36:14;11.40;;;10.30;;
19505;SDS011;9894;50.852;-0.140;2023-04-15T12:38:40;9.63;;;8.93;;
19505;SDS011;9894;50.852;-0.140;2023-04-15T12:41:06;9.82;;;9.13;;
19505;SDS011;9894;50.852;-0.140;2023-04-15T12:43:32;9.80;;;9.10;;
19505;SDS011;9894;50.852;-0.140;2023-04-15T12:45:59;10.02;;;9.32;;
19505;SDS011;9894;50.852;-0.140;2023-04-15T12:48:25;10.60;;;9.90;;
19505;SDS011;9894;50.852;-0.140;2023-04-15T12:50:51;9.52;;;8.82;;
19505;SDS011;9894;50.852;-0.140;2023-04-15T12:53:17;10.13;;;9.43;;
19505;SDS011;9894;50.852;-0.140;2023-04-15T12:55:43;9.27;;;8.68;;
19505;SDS011;9894;50.852;-0.140;2023-04-15T12:58:09;9.70;;;9.00;;
19505;SDS011;9894;50.852;-0.140;2023-04-15T13:00:36;9.00;;;8.40;;
19505;SDS011;9894;50.852;-0.140;2023-04-15T13:03:02;9.15;;;8.55;;
19505;SDS011;9894;50.852;-0.140;2023-04-15T13:05:29;9.00;;;8.40;;
19505;SDS011;9894;50.852;-0.140;2023-04-15T13:07:55;9.10;;;8.50;;
19505;SDS011;9894;50.852;-0.140;2023-04-15T13:10:21;7.95;;;7.35;;
19505;SDS011;9894;50.852;-0.140;2023-04-15T13:12:48;9.07;;;8.38;;
19505;SDS011;9894;50.852;-0.140;2023-04-15T13:15:17;9.50;;;8.80;;
19505;SDS011;9894;50.852;-0.140;2023-04-15T13:17:45;9.05;;;8.45;;
19505;SDS011;9894;50.852;-0.140;2023-04-15T13:20:11;8.93;;;8.32;;
19505;SDS011;9894;50.852;-0.140;2023-04-15T13:22:38;8.90;;;8.30;;
19505;SDS011;9894;50.852;-0.140;2023-04-15T13:25:04;8.77;;;8.18;;
19505;SDS011;9894;50.852;-0.140;2023-04-15T13:27:31;9.38;;;8.68;;
19505;SDS011;9894;50.852;-0.140;2023-04-15T13:29:57;8.98;;;8.32;;
19505;SDS011;9894;50.852;-0.140;2023-04-15T13:32:24;8.73;;;8.13;;
19505;SDS011;9894;50.852;-0.140;2023-04-15T13:34:50;8.30;;;7.72;;
19505;SDS011;9894;50.852;-0.140;2023-04-15T13:37:16;8.60;;;8.00;;
19505;SDS011;9894;50.852;-0.140;2023-04-15T13:39:42;8.30;;;7.70;;
19505;SDS011;9894;50.852;-0.140;2023-04-15T13:42:08;8.55;;;7.95;;
19505;SDS011;9894;50.852;-0.140;2023-04-15T13:44:34;8.70;;;8.10;;
19505;SDS011;9894;50.852;-0.140;2023-04-15T13:47:04;8.00;;;7.50;;
19505;SDS011;9894;50.852;-0.140;2023-04-15T13:49:33;9.23;;;8.60;;
19505;SDS011;9894;50.852;-0.140;2023-04-15T13:52:08;7.88;;;7.38;;
19505;SDS011;9894;50.852;-0.140;2023-04-15T13:54:39;7.60;;;7.10;;
19505;SDS011;9894;50.852;-0.140;2023-04-15T14:00:02;7.20;;;6.70;;
19505;SDS011;9894;50.852;-0.140;2023-04-15T14:02:32;7.78;;;7.28;;
19505;SDS011;9894;50.852;-0.140;2023-04-15T14:05:02;9.40;;;7.47;;
19505;SDS011;9894;50.852;-0.140;2023-04-15T14:07:36;8.07;;;7.53;;
19505;SDS011;9894;50.852;-0.140;2023-04-15T14:10:11;7.80;;;7.30;;
19505;SDS011;9894;50.852;-0.140;2023-04-15T14:12:40;7.70;;;7.20;;
19505;SDS011;9894;50.852;-0.140;2023-04-15T14:15:27;8.35;;;7.75;;
19505;SDS011;9894;50.852;-0.140;2023-04-15T14:17:53;7.30;;;6.80;;
19505;SDS011;9894;50.852;-0.140;2023-04-15T14:20:19;7.10;;;6.60;;
19505;SDS011;9894;50.852;-0.140;2023-04-15T14:22:45;10.23;;;9.48;;
19505;SDS011;9894;50.852;-0.140;2023-04-15T14:25:12;7.65;;;7.15;;
19505;SDS011;9894;50.852;-0.140;2023-04-15T14:27:41;7.60;;;7.10;;
19505;SDS011;9894;50.852;-0.140;2023-04-15T14:30:07;7.50;;;7.00;;
19505;SDS011;9894;50.852;-0.140;2023-04-15T14:32:34;7.72;;;7.22;;
19505;SDS011;9894;50.852;-0.140;2023-04-15T14:35:02;7.50;;;7.00;;
19505;SDS011;9894;50.852;-0.140;2023-04-15T14:37:31;7.57;;;7.07;;
19505;SDS011;9894;50.852;-0.140;2023-04-15T14:39:58;7.40;;;6.90;;
19505;SDS011;9894;50.852;-0.140;2023-04-15T14:42:24;7.60;;;7.10;;
19505;SDS011;9894;50.852;-0.140;2023-04-15T14:44:51;8.35;;;7.75;;
19505;SDS011;9894;50.852;-0.140;2023-04-15T14:47:17;8.02;;;7.53;;
19505;SDS011;9894;50.852;-0.140;2023-04-15T14:49:43;7.47;;;6.97;;
19505;SDS011;9894;50.852;-0.140;2023-04-15T14:52:11;8.90;;;8.02;;
19505;SDS011;9894;50.852;-0.140;2023-04-15T14:54:37;7.45;;;6.95;;
19505;SDS011;9894;50.852;-0.140;2023-04-15T14:57:04;8.38;;;7.78;;
19505;SDS011;9894;50.852;-0.140;2023-04-15T14:59:31;7.68;;;7.18;;
19505;SDS011;9894;50.852;-0.140;2023-04-15T15:02:00;6.70;;;6.30;;
19505;SDS011;9894;50.852;-0.140;2023-04-15T15:04:27;7.28;;;6.78;;
19505;SDS011;9894;50.852;-0.140;2023-04-15T15:06:54;7.22;;;6.72;;
19505;SDS011;9894;50.852;-0.140;2023-04-15T15:09:21;7.20;;;6.70;;